Aplicació Alertes

Dades de l'estació automàtica Viladecans

?
?
Resum diari 22:30 TU
Dades diàries de l'estació meteorològica
Temperatura mitjana 6.8 °C
Temperatura màxima 15.1 °C 13:34 TU
Temperatura mínima 0.9 °C 0:58 TU
Humitat relativa mitjana 51%
Precipitació acumulada 0.0 mm
Ratxa màxima del vent (2 m) 18.7 km/h - 265º 14:17 TU
Irradiació solar global 8.7 MJ/m2

El tram horari està expressat en Temps Universal (TU). Cal sumar una hora en horari d'hivern i dues en horari d'estiu per passar a l'hora oficial.

Viladecans

Metadades estació meteorol´gica
Municipi Viladecans
Comarca Baix Llobregat
Altitud 3 m
Data alta 29.04.1993
Estat actual Operativa
Dades de període
Període
TU
TM
°C
TX
°C
TN
°C
HRM
%
PPT
mm
VVM (2 m)
km/h
DVM (2 m)
graus
VVX (2 m)
km/h
RS
W/m2
00:00 - 00:30 1.8 2.2 1.5 74 0.0 1.4 11 4.7 0
00:30 - 01:00 2.5 3.3 0.9 66 0.0 0.4 37 2.9 0
01:00 - 01:30 2.7 3.7 1.2 64 0.0 0.7 25 4.0 0
01:30 - 02:00 3.5 3.7 3.3 62 0.0 0.7 29 3.6 0
02:00 - 02:30 4.0 4.2 3.7 59 0.0 1.1 38 4.7 0
02:30 - 03:00 3.4 3.8 3.2 63 0.0 1.4 52 4.7 0
03:00 - 03:30 3.9 4.3 3.2 61 0.0 1.1 36 4.7 0
03:30 - 04:00 4.1 4.6 3.7 59 0.0 2.2 339 7.9 0
04:00 - 04:30 4.2 4.6 3.6 59 0.0 2.5 30 7.9 0
04:30 - 05:00 3.2 3.6 2.7 65 0.0 1.8 63 5.4 0
05:00 - 05:30 2.3 2.8 2.0 69 0.0 2.2 75 6.5 0
05:30 - 06:00 2.6 2.8 2.3 67 0.0 1.1 49 6.1 0
06:00 - 06:30 3.3 3.6 2.7 64 0.0 3.6 340 10.8 0
06:30 - 07:00 2.6 3.1 2.4 66 0.0 0.7 41 4.3 0
07:00 - 07:30 3.2 3.8 2.9 63 0.0 2.9 12 8.6 4
07:30 - 08:00 4.3 4.7 3.7 60 0.0 4.3 13 12.2 53
08:00 - 08:30 4.7 5.2 4.5 60 0.0 4.7 345 11.2 124
08:30 - 09:00 5.8 6.1 5.3 57 0.0 5.0 2 13.0 204
09:00 - 09:30 6.7 7.4 6.1 53 0.0 6.8 359 17.3 273
09:30 - 10:00 8.1 8.8 7.5 49 0.0 7.2 353 18.4 332
10:00 - 10:30 9.3 10.0 8.8 46 0.0 4.3 5 13.7 380
10:30 - 11:00 10.8 11.7 9.9 41 0.0 2.5 21 10.8 415
11:00 - 11:30 11.6 12.5 10.8 39 0.0 1.8 99 6.5 420
11:30 - 12:00 12.5 13.4 12.0 37 0.0 1.8 67 5.4 443
12:00 - 12:30 13.3 13.6 12.5 34 0.0 1.4 350 6.1 435
12:30 - 13:00 13.8 14.5 13.3 36 0.0 2.9 167 15.8 414
13:00 - 13:30 14.4 15.0 14.0 30 0.0 4.3 303 15.1 382
13:30 - 14:00 14.8 15.1 14.3 27 0.0 5.0 294 12.6 341
14:00 - 14:30 14.2 14.6 13.8 27 0.0 7.6 279 18.7 284
14:30 - 15:00 13.6 14.0 13.4 27 0.0 4.3 294 11.2 213
15:00 - 15:30 13.1 13.4 12.7 28 0.0 3.6 302 12.6 138
15:30 - 16:00 12.5 12.7 12.0 28 0.0 5.0 301 14.4 54
16:00 - 16:30 11.2 11.9 10.4 30 0.0 3.6 317 8.6 11
16:30 - 17:00 10.3 10.7 9.6 31 0.0 1.4 333 6.1 0
17:00 - 17:30 8.7 9.8 8.1 35 0.0 1.1 22 3.2 0
17:30 - 18:00 7.3 8.4 6.4 41 0.0 0.7 335 3.2 0
18:00 - 18:30 5.1 6.0 4.2 52 0.0 0.4 316 3.2 0
18:30 - 19:00 4.4 5.2 4.0 54 0.0 0.4 58 4.3 0
19:00 - 19:30 4.3 6.4 2.6 55 0.0 1.4 343 8.3 0
19:30 - 20:00 5.7 6.4 5.3 51 0.0 1.8 359 4.3 0
20:00 - 20:30 4.9 5.3 4.6 56 0.0 2.5 309 5.8 0
20:30 - 21:00 4.6 4.9 4.1 58 0.0 1.1 355 5.0 0
21:00 - 21:30 4.9 5.5 4.2 57 0.0 0.7 350 4.3 0
21:30 - 22:00 3.8 4.7 3.1 64 0.0 1.1 358 2.9 0
22:00 - 22:30 3.8 4.3 3.1 63 0.0 1.1 18 5.0 0
22:30 - 23:00 3.6 4.2 3.0 66 0.0 1.1 41 3.2 0
23:00 - 23:30 (s/d) (s/d) (s/d) (s/d) (s/d) (s/d) (s/d) (s/d) (s/d)

Les dades en taronja només han passat un control de qualitat automàtic. Resta pendent la seva validació definitiva.